Vaduz, Liechtenstein
Current Conditions -  °F | °C
As of 10:20 AM on Monday 20 Oct 2014 (Local Time) from LSZR Reporting Station
Clear Clear  
Wind Chill: 61°   Ceiling: Unl
Heat Index: 61°   Visibility: 6mi
Dew Point: 55°   Wind: 5mph
Humidity: 82%   Direction: 300°WNW
Pressure: 30.18"   Gusts: NA
Location:  47.14°N, 9.53°E
Report Text: LSZR 200820Z 30004KT CAVOK 16/13 Q1022 NOSIG RMK E
Loading
Personal Weather Stations






























Interactive Weather Map
Tropical Storm Tracking
New forecast layout! Learn more

10-Day Weather Forecast

Advertisements
Track Severe Weather on mobile